Time,TemperatureF,DewpointF,PressureIn,WindDirection,WindDirectionDegrees,WindSpeedMPH,WindSpeedGustMPH,Humidity,HourlyPrecipIn,Conditions,Clouds,dailyrainin,SoftwareType,DateUTC
2013-02-18 00:00:00,35.0,-99.9,-100.00,SSE,152,11.0,16.0,-999,0.00,,,0.00,,2013-02-18 06:00:00,
2013-02-18 00:42:00,35.0,-99.9,-100.00,SSE,152,11.0,16.0,-999,0.00,,,0.00,,2013-02-18 06:42:00,
2013-02-18 00:52:00,35.0,-99.9,-100.00,SSE,152,11.0,16.0,-999,0.00,,,0.00,,2013-02-18 06:52:00,
2013-02-18 01:00:00,36.0,-99.9,-100.00,SSE,159,13.0,19.0,-999,0.00,,,0.00,,2013-02-18 07:00:00,
2013-02-18 01:42:00,36.0,-99.9,-100.00,SSE,159,13.0,19.0,-999,0.00,,,0.00,,2013-02-18 07:42:00,
2013-02-18 01:52:00,36.0,-99.9,-100.00,SSE,159,13.0,19.0,-999,0.00,,,0.00,,2013-02-18 07:52:00,
2013-02-18 02:00:00,39.0,-99.9,-100.00,SSE,161,14.0,21.0,-999,0.00,,,0.00,,2013-02-18 08:00:00,
2013-02-18 02:42:00,39.0,-99.9,-100.00,SSE,161,14.0,21.0,-999,0.00,,,0.00,,2013-02-18 08:42:00,
2013-02-18 02:52:00,39.0,-99.9,-100.00,SSE,161,14.0,21.0,-999,0.00,,,0.00,,2013-02-18 08:52:00,
2013-02-18 03:00:00,40.0,-99.9,-100.00,SSE,167,12.0,23.0,-999,0.00,,,0.00,,2013-02-18 09:00:00,
2013-02-18 03:42:00,40.0,-99.9,-100.00,SSE,167,12.0,23.0,-999,0.00,,,0.00,,2013-02-18 09:42:00,
2013-02-18 03:52:00,40.0,-99.9,-100.00,SSE,167,12.0,23.0,-999,0.00,,,0.00,,2013-02-18 09:52:00,
2013-02-18 04:00:00,40.0,-99.9,-100.00,SSE,162,10.0,13.0,-999,0.00,,,0.00,,2013-02-18 10:00:00,
2013-02-18 04:43:00,40.0,-99.9,-100.00,SSE,162,10.0,13.0,-999,0.00,,,0.00,,2013-02-18 10:43:00,
2013-02-18 04:54:00,40.0,-99.9,-100.00,SSE,162,10.0,13.0,-999,0.00,,,0.00,,2013-02-18 10:54:00,
2013-02-18 05:00:00,39.0,-99.9,-100.00,SSE,164,7.0,9.0,-999,0.00,,,0.00,,2013-02-18 11:00:00,
2013-02-18 05:43:00,39.0,-99.9,-100.00,SSE,164,7.0,9.0,-999,0.00,,,0.00,,2013-02-18 11:43:00,
2013-02-18 05:54:00,39.0,-99.9,-100.00,SSE,164,7.0,9.0,-999,0.00,,,0.00,,2013-02-18 11:54:00,
2013-02-18 06:00:00,38.0,-99.9,-100.00,South,171,5.0,8.0,-999,0.00,,,0.00,,2013-02-18 12:00:00,
2013-02-18 06:42:00,38.0,-99.9,-100.00,South,171,5.0,8.0,-999,0.00,,,0.00,,2013-02-18 12:42:00,
2013-02-18 06:54:00,38.0,-99.9,-100.00,South,171,5.0,8.0,-999,0.00,,,0.00,,2013-02-18 12:54:00,
2013-02-18 07:00:00,38.0,-99.9,-100.00,South,172,5.0,6.0,-999,0.00,,,0.00,,2013-02-18 13:00:00,
2013-02-18 07:43:00,38.0,-99.9,-100.00,South,172,5.0,6.0,-999,0.00,,,0.00,,2013-02-18 13:43:00,
2013-02-18 07:53:00,38.0,-99.9,-100.00,South,172,5.0,6.0,-999,0.00,,,0.00,,2013-02-18 13:53:00,
2013-02-18 08:00:00,36.0,-99.9,-100.00,NW,308,3.0,7.0,-999,0.00,,,0.00,,2013-02-18 14:00:00,
2013-02-18 08:42:00,36.0,-99.9,-100.00,NW,308,3.0,7.0,-999,0.00,,,0.00,,2013-02-18 14:42:00,
2013-02-18 08:54:00,36.0,-99.9,-100.00,NW,308,3.0,7.0,-999,0.00,,,0.00,,2013-02-18 14:54:00,
2013-02-18 09:00:00,41.0,-99.9,-100.00,West,274,1.0,4.0,-999,0.00,,,0.00,,2013-02-18 15:00:00,
2013-02-18 09:42:00,41.0,-99.9,-100.00,West,274,1.0,4.0,-999,0.00,,,0.00,,2013-02-18 15:42:00,
2013-02-18 09:53:00,41.0,-99.9,-100.00,West,274,1.0,4.0,-999,0.00,,,0.00,,2013-02-18 15:53:00,
2013-02-18 10:00:00,43.0,-99.9,-100.00,WNW,285,3.0,6.0,-999,0.00,,,0.00,,2013-02-18 16:00:00,
2013-02-18 10:43:00,43.0,-99.9,-100.00,WNW,285,3.0,6.0,-999,0.00,,,0.00,,2013-02-18 16:43:00,
2013-02-18 10:54:00,43.0,-99.9,-100.00,WNW,285,3.0,6.0,-999,0.00,,,0.00,,2013-02-18 16:54:00,
2013-02-18 11:00:00,42.0,-99.9,-100.00,WNW,303,4.0,10.0,-999,0.00,,,0.00,,2013-02-18 17:00:00,
2013-02-18 11:43:00,42.0,-99.9,-100.00,WNW,303,4.0,10.0,-999,0.00,,,0.00,,2013-02-18 17:43:00,
2013-02-18 11:53:00,42.0,-99.9,-100.00,WNW,303,4.0,10.0,-999,0.00,,,0.00,,2013-02-18 17:53:00,
2013-02-18 12:00:00,41.0,-99.9,-100.00,NW,317,4.0,10.0,-999,0.00,,,0.00,,2013-02-18 18:00:00,
2013-02-18 12:43:00,41.0,-99.9,-100.00,NW,317,4.0,10.0,-999,0.00,,,0.00,,2013-02-18 18:43:00,
2013-02-18 12:53:00,41.0,-99.9,-100.00,NW,317,4.0,10.0,-999,0.00,,,0.00,,2013-02-18 18:53:00,
2013-02-18 13:00:00,40.0,-99.9,-100.00,WNW,298,5.0,12.0,-999,0.00,,,0.00,,2013-02-18 19:00:00,
2013-02-18 13:43:00,40.0,-99.9,-100.00,WNW,298,5.0,12.0,-999,0.00,,,0.00,,2013-02-18 19:43:00,
2013-02-18 13:53:00,40.0,-99.9,-100.00,WNW,298,5.0,12.0,-999,0.00,,,0.00,,2013-02-18 19:53:00,
2013-02-18 15:00:00,35.0,-99.9,-100.00,WNW,302,10.0,21.0,-999,0.00,,,0.00,,2013-02-18 21:00:00,
2013-02-18 15:43:00,35.0,-99.9,-100.00,WNW,302,10.0,21.0,-999,0.00,,,0.00,,2013-02-18 21:43:00,
2013-02-18 15:54:00,35.0,-99.9,-100.00,WNW,302,10.0,21.0,-999,0.00,,,0.00,,2013-02-18 21:54:00,
2013-02-18 16:00:00,31.0,-99.9,-100.00,WNW,301,8.0,20.0,-999,0.00,,,0.00,,2013-02-18 22:00:00,
2013-02-18 16:44:00,31.0,-99.9,-100.00,WNW,301,8.0,20.0,-999,0.00,,,0.00,,2013-02-18 22:44:00,
2013-02-18 16:54:00,31.0,-99.9,-100.00,WNW,301,8.0,20.0,-999,0.00,,,0.00,,2013-02-18 22:54:00,
2013-02-18 17:00:00,30.0,-99.9,-100.00,WNW,299,10.0,25.0,-999,0.00,,,0.00,,2013-02-18 23:00:00,
2013-02-18 17:44:00,30.0,-99.9,-100.00,WNW,299,10.0,25.0,-999,0.00,,,0.00,,2013-02-18 23:44:00,
2013-02-18 17:54:00,30.0,-99.9,-100.00,WNW,299,10.0,25.0,-999,0.00,,,0.00,,2013-02-18 23:54:00,
2013-02-18 18:00:00,29.0,-99.9,-100.00,WNW,302,7.0,25.0,-999,0.00,,,0.00,,2013-02-19 00:00:00,
2013-02-18 18:44:00,29.0,-99.9,-100.00,WNW,302,7.0,25.0,-999,0.00,,,0.00,,2013-02-19 00:44:00,
2013-02-18 18:55:00,29.0,-99.9,-100.00,WNW,302,7.0,25.0,-999,0.00,,,0.00,,2013-02-19 00:55:00,
2013-02-18 19:00:00,27.0,-99.9,-100.00,WNW,301,9.0,23.0,-999,0.00,,,0.00,,2013-02-19 01:00:00,
2013-02-18 19:46:00,27.0,-99.9,-100.00,WNW,301,9.0,23.0,-999,0.00,,,0.00,,2013-02-19 01:46:00,
2013-02-18 19:57:00,27.0,-99.9,-100.00,WNW,301,9.0,23.0,-999,0.00,,,0.00,,2013-02-19 01:57:00,
2013-02-18 20:00:00,25.0,-99.9,-100.00,NW,305,10.0,26.0,-999,0.00,,,0.00,,2013-02-19 02:00:00,
2013-02-18 20:44:00,25.0,-99.9,-100.00,NW,305,10.0,26.0,-999,0.00,,,0.00,,2013-02-19 02:44:00,
2013-02-18 20:56:00,25.0,-99.9,-100.00,NW,305,10.0,26.0,-999,0.00,,,0.00,,2013-02-19 02:56:00,
2013-02-18 21:00:00,23.0,-99.9,-100.00,NW,306,11.0,27.0,-999,0.00,,,0.00,,2013-02-19 03:00:00,
2013-02-18 21:46:00,23.0,-99.9,-100.00,NW,306,11.0,27.0,-999,0.00,,,0.00,,2013-02-19 03:46:00,
2013-02-18 21:56:00,23.0,-99.9,-100.00,NW,306,11.0,27.0,-999,0.00,,,0.00,,2013-02-19 03:56:00,
2013-02-18 22:00:00,22.0,-99.9,-100.00,WNW,300,12.0,33.0,-999,0.00,,,0.00,,2013-02-19 04:00:00,
2013-02-18 22:45:00,22.0,-99.9,-100.00,WNW,300,12.0,33.0,-999,0.00,,,0.00,,2013-02-19 04:45:00,
2013-02-18 22:56:00,22.0,-99.9,-100.00,WNW,300,12.0,33.0,-999,0.00,,,0.00,,2013-02-19 04:56:00,
2013-02-18 23:00:00,20.0,-99.9,-100.00,NW,309,11.0,22.0,-999,0.00,,,0.00,,2013-02-19 05:00:00,
2013-02-18 23:43:00,20.0,-99.9,-100.00,NW,309,11.0,22.0,-999,0.00,,,0.00,,2013-02-19 05:43:00,
2013-02-18 23:53:00,20.0,-99.9,-100.00,NW,309,11.0,22.0,-999,0.00,,,0.00,,2013-02-19 05:53:00,